createdAt,value
2019-01-16T00:02:21.643Z,-5.72
2019-01-16T00:05:08.500Z,-5.72
2019-01-16T00:08:00.087Z,-5.73
2019-01-16T00:10:55.754Z,-5.77
2019-01-16T00:13:32.063Z,-5.80
2019-01-16T00:16:20.259Z,-5.83
2019-01-16T00:19:23.908Z,-5.84
2019-01-16T00:22:10.440Z,-5.87
2019-01-16T00:25:10.944Z,-5.91
2019-01-16T00:28:02.313Z,-5.94
2019-01-16T00:30:59.729Z,-5.96
2019-01-16T00:33:39.570Z,-5.98
2019-01-16T00:36:30.885Z,-6.00
2019-01-16T00:39:18.000Z,-6.02
2019-01-16T00:42:09.335Z,-6.03
2019-01-16T00:44:57.703Z,-6.07
2019-01-16T00:47:44.781Z,-6.06
2019-01-16T00:50:33.638Z,-6.06
2019-01-16T00:53:34.267Z,-7.12
2019-01-16T00:56:24.485Z,-6.09
2019-01-16T00:59:24.744Z,-6.11
2019-01-16T01:02:11.527Z,-6.12
2019-01-16T01:04:59.238Z,-6.14
2019-01-16T01:07:50.627Z,-6.17
2019-01-16T01:10:27.534Z,-6.20
2019-01-16T01:13:18.891Z,-6.20
2019-01-16T01:16:06.187Z,-6.21
2019-01-16T01:18:49.496Z,-6.24
2019-01-16T01:21:37.632Z,-6.25
2019-01-16T01:24:24.857Z,-6.23
2019-01-16T01:27:23.084Z,-6.24
2019-01-16T01:30:04.002Z,-6.25
2019-01-16T01:32:50.975Z,-6.27
2019-01-16T01:35:45.400Z,-6.28
2019-01-16T01:38:36.634Z,-6.30
2019-01-16T01:41:28.443Z,-6.30
2019-01-16T01:44:16.599Z,-6.33
2019-01-16T01:47:20.343Z,-6.35
2019-01-16T01:50:06.515Z,-6.37
2019-01-16T01:53:13.607Z,-6.41
2019-01-16T01:55:59.072Z,-6.45
2019-01-16T01:58:34.911Z,-6.49
2019-01-16T02:01:25.999Z,-6.53
2019-01-16T02:04:25.282Z,-6.56
2019-01-16T02:07:11.841Z,-6.58
2019-01-16T02:10:09.827Z,-6.61
2019-01-16T02:13:07.297Z,-6.62
2019-01-16T02:16:01.886Z,-6.64
2019-01-16T02:18:47.311Z,-6.66
2019-01-16T02:21:23.490Z,-6.69
2019-01-16T02:24:20.503Z,-6.72
2019-01-16T02:27:11.602Z,-6.73
2019-01-16T02:30:05.904Z,-6.73
2019-01-16T02:32:54.284Z,-6.73
2019-01-16T02:35:48.549Z,-6.72
2019-01-16T02:38:35.900Z,-6.73
2019-01-16T02:41:22.637Z,-6.73
2019-01-16T02:44:09.923Z,-6.74
2019-01-16T02:46:59.014Z,-6.74
2019-01-16T02:49:50.508Z,-6.74
2019-01-16T02:52:38.654Z,-6.77
2019-01-16T02:55:25.974Z,-6.79
2019-01-16T02:58:20.107Z,-6.80
2019-01-16T03:01:02.559Z,-6.81
2019-01-16T03:03:59.789Z,-6.82
2019-01-16T03:06:50.883Z,-6.82
2019-01-16T03:09:42.047Z,-6.82
2019-01-16T03:12:29.219Z,-6.82
2019-01-16T03:15:23.175Z,-6.85
2019-01-16T03:18:03.629Z,-6.84
2019-01-16T03:21:06.843Z,-6.82
2019-01-16T03:23:58.214Z,-6.82
2019-01-16T03:26:58.907Z,-6.83
2019-01-16T03:29:45.986Z,-6.81
2019-01-16T03:32:32.739Z,-6.80
2019-01-16T03:35:19.726Z,-6.80
2019-01-16T03:38:07.863Z,-6.83
2019-01-16T03:40:54.817Z,-6.87
2019-01-16T03:43:58.070Z,-6.89
2019-01-16T03:46:46.409Z,-6.90
2019-01-16T03:49:49.623Z,-6.90
2019-01-16T03:52:26.157Z,-6.94
2019-01-16T03:55:17.391Z,-7.79
2019-01-16T03:58:04.239Z,-7.00
2019-01-16T04:00:46.380Z,-7.03
2019-01-16T04:03:29.191Z,-7.05
2019-01-16T04:06:20.024Z,-7.07
2019-01-16T04:09:14.607Z,-7.08
2019-01-16T04:12:08.604Z,-7.09
2019-01-16T04:15:03.006Z,-7.09
2019-01-16T04:17:57.280Z,-7.12
2019-01-16T04:20:40.359Z,-7.15
2019-01-16T04:23:28.508Z,-7.18
2019-01-16T04:26:09.268Z,-7.20
2019-01-16T04:29:08.920Z,-7.21
2019-01-16T04:31:55.743Z,-7.22
2019-01-16T04:34:59.505Z,-7.25
2019-01-16T04:38:02.569Z,-7.24
2019-01-16T04:40:58.384Z,-7.18
2019-01-16T04:43:52.443Z,-7.18
2019-01-16T04:46:43.602Z,-7.17
2019-01-16T04:49:37.667Z,-7.17
2019-01-16T04:52:25.005Z,-7.16
2019-01-16T04:55:24.555Z,-7.14
2019-01-16T04:58:18.801Z,-7.11
2019-01-16T05:01:06.097Z,-7.08
2019-01-16T05:03:52.898Z,-7.08
2019-01-16T05:06:34.911Z,-7.03
2019-01-16T05:09:20.713Z,-7.03
2019-01-16T05:12:18.158Z,-7.02
2019-01-16T05:15:09.461Z,-7.00
2019-01-16T05:18:06.502Z,-6.98
2019-01-16T05:20:53.705Z,-7.02
2019-01-16T05:23:50.763Z,-7.03
2019-01-16T05:26:39.082Z,-7.04
2019-01-16T05:29:31.807Z,-7.08
2019-01-16T05:32:23.842Z,-7.10
2019-01-16T05:35:12.048Z,-7.15
2019-01-16T05:38:03.609Z,-7.14
2019-01-16T05:40:50.417Z,-7.16
2019-01-16T05:43:38.763Z,-7.18
2019-01-16T05:46:23.257Z,-7.19
2019-01-16T05:49:11.484Z,-7.19
2019-01-16T05:52:05.762Z,-7.21
2019-01-16T05:54:54.220Z,-7.23
2019-01-16T05:57:41.226Z,-7.18
2019-01-16T06:00:31.521Z,-7.18
2019-01-16T06:03:16.025Z,-7.16
2019-01-16T06:05:58.674Z,-7.17
2019-01-16T06:08:46.866Z,-7.14
2019-01-16T06:11:33.462Z,-7.13
2019-01-16T06:14:24.559Z,-7.12
2019-01-16T06:17:02.027Z,-7.11
2019-01-16T06:20:08.503Z,-7.07
2019-01-16T06:22:55.622Z,-7.05
2019-01-16T06:25:55.920Z,-7.11
2019-01-16T06:28:43.807Z,-7.14
2019-01-16T06:31:38.383Z,-7.15
2019-01-16T06:34:39.487Z,-7.12
2019-01-16T06:37:26.152Z,-7.12
2019-01-16T06:40:13.147Z,-7.13
2019-01-16T06:43:01.330Z,-7.16
2019-01-16T06:46:07.724Z,-7.21
2019-01-16T06:49:04.586Z,-7.19
2019-01-16T06:51:52.898Z,-7.20
2019-01-16T06:54:38.481Z,-7.24
2019-01-16T06:57:35.710Z,-7.24
2019-01-16T07:00:25.507Z,-7.21
2019-01-16T07:03:13.695Z,-7.16
2019-01-16T07:05:58.818Z,-7.13
2019-01-16T07:08:53.418Z,-7.11
2019-01-16T07:11:31.717Z,-7.09
2019-01-16T07:14:35.179Z,-7.10
2019-01-16T07:17:38.748Z,-7.06
2019-01-16T07:20:28.625Z,-7.02
2019-01-16T07:23:14.793Z,-6.97
2019-01-16T07:26:09.212Z,-6.93
2019-01-16T07:29:09.664Z,-6.90
2019-01-16T07:32:07.137Z,-7.72
2019-01-16T07:34:52.389Z,-6.83
2019-01-16T07:37:46.698Z,-6.79
2019-01-16T07:40:30.084Z,-6.74
2019-01-16T07:43:24.177Z,-6.71
2019-01-16T07:46:18.584Z,-6.69
2019-01-16T07:49:05.838Z,-6.66
2019-01-16T07:51:43.047Z,-6.63
2019-01-16T07:54:43.262Z,-6.62
2019-01-16T07:57:24.435Z,-6.61
2019-01-16T08:00:13.151Z,-6.57
2019-01-16T08:03:10.488Z,-6.54
2019-01-16T08:05:57.731Z,-6.52
2019-01-16T08:08:49.095Z,-6.48
2019-01-16T08:11:46.817Z,-6.46
2019-01-16T08:14:47.369Z,-6.41
2019-01-16T08:17:24.114Z,-6.39
2019-01-16T08:20:25.013Z,-6.37
2019-01-16T08:23:10.636Z,-6.34
2019-01-16T08:25:58.809Z,-6.28
2019-01-16T08:28:45.738Z,-6.22
2019-01-16T08:31:26.099Z,-6.16
2019-01-16T08:34:13.382Z,-6.11
2019-01-16T08:36:58.421Z,-6.02
2019-01-16T08:39:58.790Z,-5.98
2019-01-16T08:42:56.268Z,-5.95
2019-01-16T08:45:48.345Z,-5.93
2019-01-16T08:48:33.208Z,-5.93
2019-01-16T08:51:19.942Z,-5.88
2019-01-16T08:54:14.002Z,-5.84
2019-01-16T08:57:02.255Z,-5.81
2019-01-16T08:59:56.532Z,-5.72
2019-01-16T09:02:54.330Z,-5.65
2019-01-16T09:05:56.979Z,-5.56
2019-01-16T09:08:44.032Z,-5.44
2019-01-16T09:11:29.737Z,-5.33
2019-01-16T09:14:17.127Z,-5.24
2019-01-16T09:17:14.340Z,-5.15
2019-01-16T09:20:02.611Z,-5.06
2019-01-16T09:22:52.775Z,-4.95
2019-01-16T09:25:53.350Z,-4.84
2019-01-16T09:28:50.497Z,-4.76
2019-01-16T09:31:37.826Z,-4.66
2019-01-16T09:34:17.705Z,-4.56
2019-01-16T09:36:58.548Z,-4.48
2019-01-16T09:39:53.458Z,-4.42
2019-01-16T09:42:45.484Z,-4.36
2019-01-16T09:45:27.318Z,-4.32
2019-01-16T09:48:15.545Z,-4.26
2019-01-16T09:51:02.695Z,-4.21
2019-01-16T09:54:09.300Z,-4.18
2019-01-16T09:56:53.804Z,-4.15
2019-01-16T09:59:40.572Z,-4.11
2019-01-16T10:02:31.623Z,-4.05
2019-01-16T10:05:14.858Z,-4.00
2019-01-16T10:08:05.909Z,-3.97
2019-01-16T10:10:54.465Z,-3.94
2019-01-16T10:14:01.074Z,-3.90
2019-01-16T10:17:07.923Z,-3.85
2019-01-16T10:20:14.567Z,-3.81
2019-01-16T10:22:59.050Z,-3.76
2019-01-16T10:25:42.966Z,-3.70
2019-01-16T10:28:37.659Z,-3.66
2019-01-16T10:31:41.144Z,-3.61
2019-01-16T10:34:28.402Z,-3.54
2019-01-16T10:37:07.391Z,-3.51
2019-01-16T10:40:03.877Z,-3.50
2019-01-16T10:42:43.792Z,-3.49
2019-01-16T10:45:31.049Z,-3.55
2019-01-16T10:48:19.231Z,-3.60
2019-01-16T10:51:13.579Z,-3.58
2019-01-16T10:54:17.122Z,-3.49
2019-01-16T10:57:03.988Z,-3.37
2019-01-16T11:00:00.047Z,-3.28
2019-01-16T11:02:41.715Z,-3.22
2019-01-16T11:05:33.286Z,-3.18
2019-01-16T11:08:27.932Z,-3.16
2019-01-16T11:11:16.285Z,-3.16
2019-01-16T11:14:10.964Z,-3.12
2019-01-16T11:16:59.365Z,-3.08
2019-01-16T11:19:50.622Z,-3.04
2019-01-16T11:22:56.852Z,-3.03
2019-01-16T11:25:43.425Z,-3.07
2019-01-16T11:28:40.440Z,-3.09
2019-01-16T11:31:25.522Z,-3.07
2019-01-16T11:34:07.777Z,-3.05
2019-01-16T11:36:55.039Z,-3.03
2019-01-16T11:39:43.723Z,-3.05
2019-01-16T11:42:37.946Z,-3.01
2019-01-16T11:45:29.411Z,-2.93
2019-01-16T11:48:18.776Z,-3.15
2019-01-16T11:51:09.327Z,-2.92
2019-01-16T11:53:48.706Z,-2.93
2019-01-16T11:56:31.046Z,-2.92
2019-01-16T11:59:23.553Z,-2.93
2019-01-16T12:02:20.964Z,-2.90
2019-01-16T12:05:21.938Z,-2.87
2019-01-16T12:08:10.468Z,-2.86
2019-01-16T12:11:11.013Z,-2.89
2019-01-16T12:14:05.347Z,-2.88
2019-01-16T12:16:45.377Z,-2.86
2019-01-16T12:19:49.071Z,-2.83
2019-01-16T12:22:34.666Z,-2.80
2019-01-16T12:25:13.335Z,-2.76
2019-01-16T12:28:01.295Z,-2.72
2019-01-16T12:30:48.403Z,-2.67
2019-01-16T12:33:44.053Z,-2.62
2019-01-16T12:36:32.245Z,-2.57
2019-01-16T12:39:31.188Z,-2.53
2019-01-16T12:42:22.487Z,-2.49
2019-01-16T12:45:09.524Z,-2.45
2019-01-16T12:48:03.842Z,-2.40
2019-01-16T12:51:07.414Z,-2.40
2019-01-16T12:53:54.057Z,-2.40
2019-01-16T12:56:54.237Z,-2.40
2019-01-16T12:59:57.506Z,-2.40
2019-01-16T13:02:44.348Z,-2.39
2019-01-16T13:05:38.643Z,-2.35
2019-01-16T13:08:32.744Z,-2.37
2019-01-16T13:11:25.829Z,-2.39
2019-01-16T13:14:17.188Z,-2.43
2019-01-16T13:17:04.131Z,-2.44
2019-01-16T13:19:58.593Z,-2.47
2019-01-16T13:22:48.892Z,-2.49
2019-01-16T13:25:35.712Z,-2.52
2019-01-16T13:28:33.922Z,-2.55
2019-01-16T13:31:42.019Z,-2.58
2019-01-16T13:34:39.216Z,-2.60
2019-01-16T13:37:36.555Z,-2.61
2019-01-16T13:40:26.152Z,-2.63
2019-01-16T13:43:12.980Z,-2.64
2019-01-16T13:46:07.267Z,-2.65
2019-01-16T13:48:52.860Z,-2.64
2019-01-16T13:51:50.041Z,-2.63
2019-01-16T13:54:39.091Z,-2.63
2019-01-16T13:57:30.105Z,-2.61
2019-01-16T14:00:17.092Z,-2.60
2019-01-16T14:03:07.719Z,-2.59
2019-01-16T14:06:08.213Z,-2.55
2019-01-16T14:09:02.374Z,-2.50
2019-01-16T14:11:51.389Z,-2.48
2019-01-16T14:14:37.955Z,-2.44
2019-01-16T14:17:26.498Z,-2.41
2019-01-16T14:20:21.020Z,-2.37
2019-01-16T14:23:08.053Z,-2.33
2019-01-16T14:26:11.688Z,-2.29
2019-01-16T14:29:11.527Z,-2.25
2019-01-16T14:31:58.995Z,-2.18
2019-01-16T14:34:45.996Z,-2.15
2019-01-16T14:37:46.417Z,-2.08
2019-01-16T14:40:38.245Z,-2.03
2019-01-16T14:43:32.854Z,-2.00
2019-01-16T14:46:36.131Z,-1.95
2019-01-16T14:49:24.722Z,-1.91
2019-01-16T14:52:03.717Z,-1.86
2019-01-16T14:54:55.797Z,-1.81
2019-01-16T14:57:47.270Z,-1.76
2019-01-16T15:00:30.751Z,-1.71
2019-01-16T15:03:16.265Z,-1.67
2019-01-16T15:06:16.463Z,-1.64
2019-01-16T15:09:03.521Z,-1.61
2019-01-16T15:12:00.686Z,-1.57
2019-01-16T15:14:40.619Z,-1.53
2019-01-16T15:17:30.053Z,-1.47
2019-01-16T15:20:21.867Z,-1.42
2019-01-16T15:23:15.824Z,-1.40
2019-01-16T15:26:07.113Z,-1.34
2019-01-16T15:29:04.377Z,-1.29
2019-01-16T15:31:51.625Z,-1.25
2019-01-16T15:34:48.846Z,-1.21
2019-01-16T15:37:35.972Z,-1.17
2019-01-16T15:40:37.771Z,-1.12
2019-01-16T15:43:23.511Z,-1.08
2019-01-16T15:46:13.529Z,-1.03
2019-01-16T15:48:58.786Z,-1.00
2019-01-16T15:51:45.887Z,-0.95
2019-01-16T15:54:37.395Z,-0.91
2019-01-16T15:57:24.552Z,-0.87
2019-01-16T16:00:15.733Z,-0.84
2019-01-16T16:03:02.253Z,-0.80
2019-01-16T16:05:53.770Z,-0.77
2019-01-16T16:08:40.878Z,-0.74
2019-01-16T16:11:35.072Z,-0.70
2019-01-16T16:14:16.719Z,-0.68
2019-01-16T16:17:08.169Z,-0.65
2019-01-16T16:19:54.894Z,-0.63
2019-01-16T16:22:46.355Z,-0.59
2019-01-16T16:25:33.648Z,-0.59
2019-01-16T16:28:34.765Z,-0.55
2019-01-16T16:31:26.036Z,-0.53
2019-01-16T16:34:29.292Z,-0.51
2019-01-16T16:37:16.241Z,-0.47
2019-01-16T16:40:13.725Z,-0.42
2019-01-16T16:43:08.061Z,-0.39
2019-01-16T16:45:55.173Z,-0.34
2019-01-16T16:48:38.630Z,-0.29
2019-01-16T16:51:25.548Z,-0.23
2019-01-16T16:54:13.755Z,-0.17
2019-01-16T16:57:17.209Z,-0.13
2019-01-16T17:00:03.793Z,-0.08
2019-01-16T17:02:52.029Z,0.00
2019-01-16T17:05:38.878Z,0.06
2019-01-16T17:08:30.218Z,0.09
2019-01-16T17:11:21.589Z,0.12
2019-01-16T17:14:08.652Z,0.15
2019-01-16T17:16:55.695Z,0.18
2019-01-16T17:19:33.975Z,0.20
2019-01-16T17:22:21.131Z,0.22
2019-01-16T17:25:09.405Z,0.23
2019-01-16T17:28:00.677Z,0.25
2019-01-16T17:30:47.656Z,0.24
2019-01-16T17:33:38.677Z,0.27
2019-01-16T17:36:33.577Z,0.28
2019-01-16T17:39:20.674Z,0.30
2019-01-16T17:42:17.829Z,0.31
2019-01-16T17:45:04.917Z,0.32
2019-01-16T17:47:59.981Z,0.33
2019-01-16T17:50:47.026Z,0.36
2019-01-16T17:53:35.436Z,0.38
2019-01-16T17:56:30.411Z,0.39
2019-01-16T17:59:37.237Z,0.42
2019-01-16T18:02:37.786Z,0.45
2019-01-16T18:05:29.046Z,0.49
2019-01-16T18:08:09.148Z,0.53
2019-01-16T18:11:00.350Z,0.57
2019-01-16T18:14:00.954Z,0.59
2019-01-16T18:17:04.570Z,0.62
2019-01-16T18:19:51.808Z,0.64
2019-01-16T18:22:45.197Z,0.68
2019-01-16T18:25:34.879Z,0.72
2019-01-16T18:28:19.297Z,0.73
2019-01-16T18:31:16.704Z,-2.32
2019-01-16T18:34:11.037Z,0.79
2019-01-16T18:37:17.345Z,0.89
2019-01-16T18:40:11.995Z,1.16
2019-01-16T18:43:00.203Z,1.34
2019-01-16T18:45:41.791Z,1.34
2019-01-16T18:48:24.906Z,1.33
2019-01-16T18:51:11.859Z,1.30
2019-01-16T18:53:58.690Z,1.39
2019-01-16T18:56:49.843Z,1.48
2019-01-16T18:59:38.738Z,1.55
2019-01-16T19:02:29.781Z,1.59
2019-01-16T19:05:18.062Z,1.78
2019-01-16T19:08:21.492Z,1.84
2019-01-16T19:11:08.788Z,1.91
2019-01-16T19:14:09.203Z,1.97
2019-01-16T19:17:15.494Z,2.06
2019-01-16T19:19:57.013Z,2.08
2019-01-16T19:22:58.063Z,2.11
2019-01-16T19:25:58.888Z,2.13
2019-01-16T19:28:52.192Z,2.18
2019-01-16T19:31:39.168Z,2.21
2019-01-16T19:34:33.543Z,2.25
2019-01-16T19:37:23.230Z,2.28
2019-01-16T19:40:13.676Z,2.29
2019-01-16T19:43:14.047Z,2.31
2019-01-16T19:45:59.919Z,2.36
2019-01-16T19:48:47.873Z,2.40
2019-01-16T19:51:34.846Z,2.41
2019-01-16T19:54:32.224Z,2.41
2019-01-16T19:57:18.200Z,2.46
2019-01-16T20:00:14.159Z,2.44
2019-01-16T20:03:00.226Z,2.47
2019-01-16T20:06:00.533Z,2.50
2019-01-16T20:08:48.701Z,2.53
2019-01-16T20:11:45.976Z,2.56
2019-01-16T20:14:31.795Z,2.58
2019-01-16T20:17:14.079Z,2.63
2019-01-16T20:20:02.903Z,2.65
2019-01-16T20:22:45.640Z,2.67
2019-01-16T20:25:49.555Z,2.69
2019-01-16T20:28:41.583Z,2.72
2019-01-16T20:31:40.520Z,2.72
2019-01-16T20:34:29.132Z,2.75
2019-01-16T20:37:23.541Z,2.78
2019-01-16T20:40:20.979Z,2.77
2019-01-16T20:43:09.715Z,2.77
2019-01-16T20:45:52.053Z,2.79
2019-01-16T20:48:29.979Z,2.80
2019-01-16T20:51:16.855Z,2.83
2019-01-16T20:53:58.477Z,2.87
2019-01-16T20:56:36.446Z,2.89
2019-01-16T20:59:25.464Z,2.93
2019-01-16T21:02:06.376Z,2.94
2019-01-16T21:05:09.231Z,2.92
2019-01-16T21:07:56.808Z,2.84
2019-01-16T21:10:37.095Z,2.74
2019-01-16T21:13:25.333Z,2.68
2019-01-16T21:16:03.188Z,2.60
2019-01-16T21:19:09.681Z,2.54
2019-01-16T21:22:03.784Z,2.50
2019-01-16T21:24:55.164Z,2.46
2019-01-16T21:27:49.289Z,2.41
2019-01-16T21:30:39.436Z,2.39
2019-01-16T21:33:42.979Z,2.37
2019-01-16T21:36:37.325Z,2.35
2019-01-16T21:39:41.091Z,2.33
2019-01-16T21:42:36.087Z,2.32
2019-01-16T21:45:26.587Z,2.32
2019-01-16T21:48:20.530Z,2.32
2019-01-16T21:51:11.521Z,2.32
2019-01-16T21:53:50.717Z,2.33
2019-01-16T21:56:34.047Z,2.33
2019-01-16T21:59:25.810Z,2.35
2019-01-16T22:02:17.145Z,2.35
2019-01-16T22:05:05.573Z,2.35
2019-01-16T22:07:42.632Z,2.34
2019-01-16T22:10:31.214Z,2.35
2019-01-16T22:13:26.272Z,2.35
2019-01-16T22:16:19.994Z,2.37
2019-01-16T22:19:02.968Z,2.36
2019-01-16T22:21:44.892Z,2.35
2019-01-16T22:24:21.833Z,2.34
2019-01-16T22:27:08.992Z,2.35
2019-01-16T22:29:58.941Z,2.20
2019-01-16T22:32:53.040Z,2.35
2019-01-16T22:35:34.301Z,2.34
2019-01-16T22:38:41.022Z,2.32
2019-01-16T22:41:28.301Z,2.30
2019-01-16T22:44:13.200Z,2.27
2019-01-16T22:47:00.451Z,2.24
2019-01-16T22:49:57.953Z,2.24
2019-01-16T22:52:38.587Z,2.24
2019-01-16T22:55:29.051Z,2.23
2019-01-16T22:58:16.026Z,2.25
2019-01-16T23:01:05.944Z,2.25
2019-01-16T23:03:49.823Z,2.26
2019-01-16T23:06:33.734Z,2.25
2019-01-16T23:09:20.494Z,2.26
2019-01-16T23:12:14.587Z,2.26
2019-01-16T23:15:05.798Z,2.25
2019-01-16T23:17:52.953Z,2.24
2019-01-16T23:20:48.602Z,2.26
2019-01-16T23:23:35.589Z,2.24
2019-01-16T23:26:26.645Z,2.24
2019-01-16T23:29:21.089Z,2.23
2019-01-16T23:31:58.668Z,2.21
2019-01-16T23:34:56.959Z,2.20
2019-01-16T23:37:38.374Z,2.21
2019-01-16T23:40:27.937Z,2.22
2019-01-16T23:43:22.396Z,2.25
2019-01-16T23:46:10.750Z,2.29
2019-01-16T23:49:14.274Z,2.32
2019-01-16T23:52:04.248Z,2.35
2019-01-16T23:54:58.311Z,2.39
2019-01-16T23:57:44.130Z,2.43
